createdAt,value
2023-03-15T00:02:06.856Z,2.92
2023-03-15T00:04:34.518Z,2.85
2023-03-15T00:07:03.476Z,2.88
2023-03-15T00:09:31.093Z,3.35
2023-03-15T00:11:58.753Z,3.05
2023-03-15T00:14:26.332Z,3.10
2023-03-15T00:16:54.685Z,2.80
2023-03-15T00:19:22.330Z,3.10
2023-03-15T00:21:49.947Z,3.95
2023-03-15T00:24:18.980Z,3.33
2023-03-15T00:26:46.592Z,3.60
2023-03-15T00:29:14.187Z,3.30
2023-03-15T00:31:41.780Z,3.85
2023-03-15T00:34:09.415Z,3.53
2023-03-15T00:36:37.645Z,4.55
2023-03-15T00:39:05.585Z,4.82
2023-03-15T00:41:35.327Z,5.38
2023-03-15T00:44:04.164Z,4.63
2023-03-15T00:46:31.852Z,4.22
2023-03-15T00:48:59.460Z,5.65
2023-03-15T00:51:27.074Z,5.32
2023-03-15T00:53:55.161Z,5.07
2023-03-15T00:56:25.945Z,5.55
2023-03-15T00:58:54.896Z,5.45
2023-03-15T01:01:24.773Z,6.32
2023-03-15T01:03:52.696Z,6.18
2023-03-15T01:06:22.578Z,5.45
2023-03-15T01:08:51.382Z,6.22
2023-03-15T01:11:22.291Z,7.95
2023-03-15T01:13:49.886Z,9.77
2023-03-15T01:16:20.289Z,8.25
2023-03-15T01:18:47.892Z,9.38
2023-03-15T01:21:16.323Z,9.65
2023-03-15T01:23:46.726Z,10.35
2023-03-15T01:26:16.899Z,9.00
2023-03-15T01:28:45.066Z,8.45
2023-03-15T01:31:18.015Z,8.45
2023-03-15T01:33:47.016Z,7.25
2023-03-15T01:36:14.794Z,7.78
2023-03-15T01:38:43.690Z,8.57
2023-03-15T01:41:12.169Z,6.10
2023-03-15T01:43:47.420Z,8.20
2023-03-15T01:46:24.674Z,7.05
2023-03-15T01:49:01.596Z,7.40
2023-03-15T01:51:38.011Z,8.30
2023-03-15T01:54:10.259Z,9.20
2023-03-15T01:56:42.243Z,8.63
2023-03-15T01:59:15.881Z,8.60
2023-03-15T02:01:45.691Z,9.95
2023-03-15T02:04:19.609Z,8.75
2023-03-15T02:06:48.912Z,8.48
2023-03-15T02:09:19.688Z,9.00
2023-03-15T02:11:49.028Z,8.32
2023-03-15T02:14:18.574Z,10.55
2023-03-15T02:16:46.592Z,11.85
2023-03-15T02:19:35.321Z,13.02
2023-03-15T02:22:12.024Z,14.68
2023-03-15T02:24:53.485Z,15.63
2023-03-15T02:27:30.039Z,15.25
2023-03-15T02:29:58.278Z,14.90
2023-03-15T02:32:26.023Z,15.90
2023-03-15T02:34:53.712Z,16.55
2023-03-15T02:37:21.440Z,17.35
2023-03-15T02:39:49.271Z,16.08
2023-03-15T02:42:19.196Z,15.23
2023-03-15T02:44:49.904Z,14.25
2023-03-15T02:47:21.372Z,13.90
2023-03-15T02:49:51.931Z,14.18
2023-03-15T02:52:19.567Z,14.02
2023-03-15T02:54:47.211Z,13.07
2023-03-15T02:57:16.352Z,12.95
2023-03-15T02:59:45.561Z,12.65
2023-03-15T03:02:15.503Z,15.10
2023-03-15T03:04:44.043Z,11.35
2023-03-15T03:07:12.233Z,11.95
2023-03-15T03:09:47.773Z,11.55
2023-03-15T03:12:16.059Z,11.30
2023-03-15T03:14:44.161Z,10.32
2023-03-15T03:17:17.640Z,10.45
2023-03-15T03:19:45.913Z,9.68
2023-03-15T03:22:14.460Z,10.70
2023-03-15T03:24:45.809Z,11.15
2023-03-15T03:27:15.775Z,11.05
2023-03-15T03:29:46.070Z,13.25
2023-03-15T03:32:14.166Z,13.10
2023-03-15T03:34:48.364Z,12.60
2023-03-15T03:37:18.374Z,15.55
2023-03-15T03:39:55.183Z,15.98
2023-03-15T03:42:22.925Z,14.73
2023-03-15T03:44:51.244Z,15.15
2023-03-15T03:47:20.222Z,13.95
2023-03-15T03:49:49.166Z,14.07
2023-03-15T03:52:16.917Z,11.88
2023-03-15T03:54:45.424Z,12.43
2023-03-15T03:57:13.055Z,10.60
2023-03-15T03:59:41.589Z,6.82
2023-03-15T04:02:10.688Z,6.57
2023-03-15T04:04:41.318Z,8.02
2023-03-15T04:07:16.990Z,6.45
2023-03-15T04:09:45.059Z,6.70
2023-03-15T04:12:13.172Z,6.45
2023-03-15T04:14:43.357Z,7.07
2023-03-15T04:17:12.967Z,6.05
2023-03-15T04:19:42.038Z,7.00
2023-03-15T04:22:15.271Z,6.78
2023-03-15T04:25:04.903Z,5.32
2023-03-15T04:27:58.602Z,5.95
2023-03-15T04:30:45.126Z,6.20
2023-03-15T04:33:24.484Z,6.22
2023-03-15T04:36:03.295Z,6.07
2023-03-15T04:38:47.405Z,6.82
2023-03-15T04:41:42.980Z,7.32
2023-03-15T04:44:20.735Z,7.13
2023-03-15T04:47:14.612Z,6.00
2023-03-15T04:50:03.643Z,6.30
2023-03-15T04:52:51.980Z,6.20
2023-03-15T04:55:37.978Z,7.70
2023-03-15T04:58:25.341Z,6.68
2023-03-15T05:00:54.362Z,8.63
2023-03-15T05:03:46.738Z,7.82
2023-03-15T05:06:47.808Z,7.00
2023-03-15T05:09:39.631Z,7.80
2023-03-15T05:12:39.689Z,8.57
2023-03-15T05:15:24.376Z,8.40
2023-03-15T05:18:12.901Z,9.52
2023-03-15T05:21:09.590Z,10.73
2023-03-15T05:23:55.527Z,10.35
2023-03-15T05:26:54.213Z,11.43
2023-03-15T05:29:46.378Z,13.05
2023-03-15T05:32:44.753Z,14.35
2023-03-15T05:35:13.571Z,13.35
2023-03-15T05:37:49.984Z,14.00
2023-03-15T05:40:56.064Z,13.23
2023-03-15T05:43:46.039Z,13.10
2023-03-15T05:46:33.832Z,12.30
2023-03-15T05:49:21.064Z,12.27
2023-03-15T05:52:01.327Z,12.07
2023-03-15T05:54:38.886Z,13.43
2023-03-15T05:57:29.609Z,12.45
2023-03-15T06:00:15.224Z,13.43
2023-03-15T06:02:43.277Z,14.75
2023-03-15T06:05:33.956Z,15.75
2023-03-15T06:08:04.891Z,16.30
2023-03-15T06:10:34.709Z,19.27
2023-03-15T06:13:07.546Z,15.80
2023-03-15T06:15:35.678Z,15.75
2023-03-15T06:18:03.655Z,15.75
2023-03-15T06:20:32.121Z,19.23
2023-03-15T06:23:07.394Z,19.52
2023-03-15T06:25:42.727Z,20.73
2023-03-15T06:28:10.483Z,20.58
2023-03-15T06:30:43.087Z,18.27
2023-03-15T06:33:11.744Z,21.27
2023-03-15T06:35:39.624Z,23.10
2023-03-15T06:38:10.477Z,23.27
2023-03-15T06:40:39.458Z,21.33
2023-03-15T06:43:07.241Z,23.80
2023-03-15T06:45:35.937Z,21.02
2023-03-15T06:48:05.498Z,23.45
2023-03-15T06:50:46.100Z,25.05
2023-03-15T06:53:16.332Z,23.60
2023-03-15T06:55:43.993Z,22.05
2023-03-15T06:58:11.645Z,24.52
2023-03-15T07:00:39.458Z,25.45
2023-03-15T07:03:07.065Z,23.25
2023-03-15T07:05:34.699Z,25.00
2023-03-15T07:08:02.366Z,23.38
2023-03-15T07:10:31.410Z,24.17
2023-03-15T07:12:59.039Z,25.23
2023-03-15T07:15:26.695Z,25.15
2023-03-15T07:17:54.411Z,22.42
2023-03-15T07:20:22.464Z,23.50
2023-03-15T07:22:50.091Z,24.40
2023-03-15T07:25:23.696Z,25.80
2023-03-15T07:27:53.420Z,23.38
2023-03-15T07:30:22.762Z,23.48
2023-03-15T07:32:50.696Z,21.65
2023-03-15T07:35:18.940Z,22.85
2023-03-15T07:37:46.999Z,24.27
2023-03-15T07:40:16.125Z,24.98
2023-03-15T07:42:44.273Z,22.08
2023-03-15T07:45:15.406Z,23.63
2023-03-15T07:47:43.045Z,23.25
2023-03-15T07:50:12.631Z,21.83
2023-03-15T07:52:41.131Z,21.05
2023-03-15T07:55:10.028Z,22.23
2023-03-15T07:57:37.885Z,21.58
2023-03-15T08:00:07.057Z,21.13
2023-03-15T08:02:41.477Z,21.60
2023-03-15T08:05:10.082Z,21.05
2023-03-15T08:07:37.908Z,22.73
2023-03-15T08:10:06.376Z,18.17
2023-03-15T08:12:35.075Z,17.77
2023-03-15T08:15:02.739Z,18.33
2023-03-15T08:17:30.342Z,17.05
2023-03-15T08:19:59.290Z,15.10
2023-03-15T08:22:27.009Z,16.85
2023-03-15T08:24:54.638Z,15.57
2023-03-15T08:27:22.250Z,15.15
2023-03-15T08:29:51.128Z,15.90
2023-03-15T08:32:20.080Z,16.40
2023-03-15T08:34:48.029Z,13.43
2023-03-15T08:37:16.998Z,10.95
2023-03-15T08:39:44.688Z,11.60
2023-03-15T08:42:12.654Z,11.48
2023-03-15T08:44:40.249Z,11.77
2023-03-15T08:47:08.308Z,9.93
2023-03-15T08:49:36.079Z,9.15
2023-03-15T08:52:03.740Z,8.13
2023-03-15T08:54:32.831Z,8.55
2023-03-15T08:57:00.685Z,7.13
2023-03-15T08:59:32.189Z,7.22
2023-03-15T09:02:00.914Z,6.78
2023-03-15T09:04:28.688Z,5.70
2023-03-15T09:06:56.509Z,7.80
2023-03-15T09:09:24.435Z,7.90
2023-03-15T09:11:53.420Z,7.60
2023-03-15T09:14:21.233Z,7.20
2023-03-15T09:16:49.136Z,6.13
2023-03-15T09:19:16.851Z,7.90
2023-03-15T09:21:45.057Z,6.00
2023-03-15T09:24:12.712Z,5.30
2023-03-15T09:26:41.022Z,8.37
2023-03-15T09:29:10.143Z,8.47
2023-03-15T09:31:37.796Z,10.50
2023-03-15T09:34:05.838Z,7.37
2023-03-15T09:36:33.449Z,7.90
2023-03-15T09:39:01.568Z,5.97
2023-03-15T09:41:42.703Z,7.47
2023-03-15T09:44:21.532Z,6.80
2023-03-15T09:47:03.010Z,7.00
2023-03-15T09:49:40.534Z,5.30
2023-03-15T09:52:22.676Z,5.40
2023-03-15T09:54:55.074Z,6.70
2023-03-15T09:57:26.589Z,5.03
2023-03-15T09:59:57.766Z,7.40
2023-03-15T10:02:28.348Z,7.97
2023-03-15T10:05:02.441Z,9.30
2023-03-15T10:07:30.125Z,7.53
2023-03-15T10:09:58.930Z,6.50
2023-03-15T10:12:31.137Z,6.33
2023-03-15T10:15:17.284Z,5.60
2023-03-15T10:17:57.486Z,7.00
2023-03-15T10:20:27.537Z,10.57
2023-03-15T10:22:59.078Z,10.57
2023-03-15T10:25:29.430Z,8.77
2023-03-15T10:28:00.213Z,9.47
2023-03-15T10:30:31.766Z,9.70
2023-03-15T10:33:03.951Z,8.67
2023-03-15T10:35:32.441Z,9.23
2023-03-15T10:38:00.212Z,7.07
2023-03-15T10:40:43.018Z,5.10
2023-03-15T10:43:21.121Z,5.80
2023-03-15T10:45:59.976Z,6.00
2023-03-15T10:48:28.448Z,8.37
2023-03-15T10:50:59.057Z,8.03
2023-03-15T10:53:26.898Z,7.67
2023-03-15T10:56:01.547Z,9.23
2023-03-15T10:58:32.046Z,8.33
2023-03-15T11:01:07.275Z,7.00
2023-03-15T11:03:36.038Z,8.27
2023-03-15T11:06:04.613Z,8.73
2023-03-15T11:08:39.637Z,9.23
2023-03-15T11:11:09.746Z,10.30
2023-03-15T11:13:39.010Z,8.53
2023-03-15T11:16:20.002Z,8.00
2023-03-15T11:18:53.388Z,6.97
2023-03-15T11:21:24.359Z,7.83
2023-03-15T11:23:53.359Z,6.10
2023-03-15T11:26:32.338Z,6.70
2023-03-15T11:29:07.852Z,6.10
2023-03-15T11:31:37.308Z,5.40
2023-03-15T11:34:09.668Z,4.80
2023-03-15T11:36:42.301Z,5.20
2023-03-15T11:39:15.797Z,5.93
2023-03-15T11:41:48.430Z,4.97
2023-03-15T11:44:26.602Z,5.80
2023-03-15T11:47:01.039Z,5.77
2023-03-15T11:49:36.218Z,6.00
2023-03-15T11:52:04.738Z,5.13
2023-03-15T11:54:33.105Z,5.40
2023-03-15T11:57:05.266Z,5.40
2023-03-15T11:59:35.211Z,4.70
2023-03-15T12:02:36.460Z,6.00
2023-03-15T12:05:17.744Z,5.90
2023-03-15T12:08:16.482Z,6.60
2023-03-15T12:10:49.537Z,5.90
2023-03-15T12:13:20.740Z,5.03
2023-03-15T12:15:50.057Z,5.10
2023-03-15T12:18:27.626Z,6.50
2023-03-15T12:21:15.999Z,55.33
2023-03-15T12:23:48.375Z,3.80
2023-03-15T12:26:36.674Z,3.50
2023-03-15T12:29:12.888Z,4.07
2023-03-15T12:31:47.025Z,3.67
2023-03-15T12:34:26.041Z,4.07
2023-03-15T12:36:58.020Z,3.77
2023-03-15T12:39:39.898Z,4.90
2023-03-15T12:42:12.661Z,5.50
2023-03-15T12:44:42.635Z,5.07
2023-03-15T12:47:11.330Z,4.30
2023-03-15T12:49:42.799Z,2.97
2023-03-15T12:52:41.117Z,4.30
2023-03-15T12:55:16.665Z,4.23
2023-03-15T12:57:50.020Z,4.30
2023-03-15T13:00:21.393Z,3.67
2023-03-15T13:02:51.703Z,3.40
2023-03-15T13:05:25.266Z,3.23
2023-03-15T13:08:09.672Z,4.33
2023-03-15T13:10:52.352Z,3.23
2023-03-15T13:13:33.558Z,3.60
2023-03-15T13:16:19.751Z,3.80
2023-03-15T13:18:59.027Z,3.50
2023-03-15T13:21:34.702Z,3.00
2023-03-15T13:24:04.349Z,3.37
2023-03-15T13:26:43.851Z,3.57
2023-03-15T13:29:19.358Z,3.00
2023-03-15T13:31:48.135Z,2.60
2023-03-15T13:34:20.641Z,2.57
2023-03-15T13:36:55.600Z,2.03
2023-03-15T13:39:25.682Z,3.00
2023-03-15T13:41:58.369Z,2.60
2023-03-15T13:44:26.906Z,2.80
2023-03-15T13:46:55.320Z,2.77
2023-03-15T13:49:23.579Z,2.93
2023-03-15T13:51:54.289Z,3.13
2023-03-15T13:54:27.137Z,2.67
2023-03-15T13:56:59.356Z,3.03
2023-03-15T13:59:32.525Z,2.60
2023-03-15T14:02:02.396Z,2.77
2023-03-15T14:04:32.526Z,2.53
2023-03-15T14:07:17.639Z,2.50
2023-03-15T14:09:46.457Z,2.50
2023-03-15T14:12:22.758Z,3.10
2023-03-15T14:14:52.345Z,2.00
2023-03-15T14:17:25.671Z,3.43
2023-03-15T14:19:55.242Z,2.90
2023-03-15T14:22:25.177Z,1.80
2023-03-15T14:24:53.849Z,2.10
2023-03-15T14:27:23.738Z,1.83
2023-03-15T14:29:53.467Z,2.47
2023-03-15T14:32:28.846Z,2.10
2023-03-15T14:35:02.020Z,1.70
2023-03-15T14:37:36.354Z,1.80
2023-03-15T14:40:16.128Z,1.77
2023-03-15T14:42:44.193Z,9.20
2023-03-15T14:45:12.502Z,2.57
2023-03-15T14:47:55.353Z,1.70
2023-03-15T14:50:25.375Z,1.73
2023-03-15T14:52:55.131Z,2.40
2023-03-15T14:55:25.309Z,1.93
2023-03-15T14:57:52.892Z,1.63
2023-03-15T15:00:21.130Z,1.83
2023-03-15T15:02:52.351Z,1.67
2023-03-15T15:05:24.773Z,1.70
2023-03-15T15:08:03.389Z,1.67
2023-03-15T15:10:33.276Z,2.17
2023-03-15T15:13:06.334Z,1.60
2023-03-15T15:15:53.467Z,1.67
2023-03-15T15:18:22.940Z,1.47
2023-03-15T15:20:54.014Z,1.70
2023-03-15T15:23:25.635Z,1.57
2023-03-15T15:25:57.023Z,1.70
2023-03-15T15:28:34.670Z,2.37
2023-03-15T15:31:02.737Z,1.60
2023-03-15T15:33:31.428Z,1.57
2023-03-15T15:35:59.459Z,2.23
2023-03-15T15:38:34.810Z,1.20
2023-03-15T15:41:02.568Z,2.27
2023-03-15T15:43:33.424Z,1.70
2023-03-15T15:46:01.819Z,1.30
2023-03-15T15:48:29.512Z,1.60
2023-03-15T15:50:57.242Z,1.50
2023-03-15T15:53:25.141Z,2.50
2023-03-15T15:55:54.165Z,1.60
2023-03-15T15:58:22.785Z,1.40
2023-03-15T16:00:50.869Z,1.98
2023-03-15T16:03:18.752Z,1.63
2023-03-15T16:05:46.375Z,1.30
2023-03-15T16:08:22.237Z,1.80
2023-03-15T16:10:49.990Z,1.60
2023-03-15T16:13:19.199Z,1.60
2023-03-15T16:15:46.879Z,1.50
2023-03-15T16:18:15.456Z,1.90
2023-03-15T16:20:43.812Z,1.90
2023-03-15T16:23:19.077Z,1.60
2023-03-15T16:25:48.934Z,1.40
2023-03-15T16:28:16.668Z,2.22
2023-03-15T16:30:47.012Z,1.75
2023-03-15T16:33:18.084Z,1.60
2023-03-15T16:35:47.572Z,1.73
2023-03-15T16:38:17.789Z,1.67
2023-03-15T16:40:46.538Z,1.45
2023-03-15T16:43:14.909Z,1.38
2023-03-15T16:45:42.680Z,1.30
2023-03-15T16:48:12.588Z,1.30
2023-03-15T16:50:40.884Z,1.27
2023-03-15T16:53:10.976Z,1.75
2023-03-15T16:55:39.559Z,1.52
2023-03-15T16:58:18.699Z,2.35
2023-03-15T17:00:48.293Z,1.60
2023-03-15T17:03:18.228Z,2.17
2023-03-15T17:05:48.094Z,1.45
2023-03-15T17:08:19.832Z,1.48
2023-03-15T17:10:47.671Z,1.80
2023-03-15T17:13:17.373Z,1.75
2023-03-15T17:15:45.135Z,1.30
2023-03-15T17:18:18.918Z,1.95
2023-03-15T17:20:48.793Z,2.28
2023-03-15T17:23:17.341Z,2.05
2023-03-15T17:25:45.048Z,2.05
2023-03-15T17:28:12.791Z,4.00
2023-03-15T17:30:40.915Z,3.58
2023-03-15T17:33:08.710Z,4.95
2023-03-15T17:35:40.779Z,2.08
2023-03-15T17:38:16.395Z,2.05
2023-03-15T17:40:44.234Z,2.35
2023-03-15T17:43:14.334Z,2.85
2023-03-15T17:45:42.703Z,2.83
2023-03-15T17:48:10.358Z,2.30
2023-03-15T17:50:40.131Z,2.30
2023-03-15T17:53:15.262Z,2.28
2023-03-15T17:55:43.396Z,2.15
2023-03-15T17:58:12.607Z,2.08
2023-03-15T18:00:42.012Z,1.38
2023-03-15T18:03:10.695Z,1.90
2023-03-15T18:05:39.809Z,2.28
2023-03-15T18:08:08.012Z,2.55
2023-03-15T18:10:38.021Z,1.67
2023-03-15T18:13:05.781Z,1.77
2023-03-15T18:15:33.922Z,2.30
2023-03-15T18:18:01.588Z,2.97
2023-03-15T18:20:29.926Z,2.65
2023-03-15T18:22:58.946Z,2.40
2023-03-15T18:25:29.348Z,2.20
2023-03-15T18:27:56.961Z,2.25
2023-03-15T18:30:26.887Z,2.28
2023-03-15T18:32:55.308Z,2.85
2023-03-15T18:35:25.424Z,3.00
2023-03-15T18:37:54.020Z,5.80
2023-03-15T18:40:23.153Z,6.68
2023-03-15T18:42:50.872Z,5.75
2023-03-15T18:45:21.935Z,6.30
2023-03-15T18:47:50.599Z,3.97
2023-03-15T18:50:19.670Z,4.22
2023-03-15T18:52:47.679Z,4.85
2023-03-15T18:55:17.422Z,6.65
2023-03-15T18:57:46.909Z,4.75
2023-03-15T19:00:23.749Z,6.88
2023-03-15T19:02:51.924Z,4.82
2023-03-15T19:05:20.457Z,4.25
2023-03-15T19:07:48.073Z,4.43
2023-03-15T19:10:19.014Z,3.95
2023-03-15T19:12:49.152Z,4.20
2023-03-15T19:15:19.646Z,3.78
2023-03-15T19:17:49.286Z,3.63
2023-03-15T19:20:18.456Z,3.65
2023-03-15T19:22:46.105Z,3.97
2023-03-15T19:25:13.966Z,2.85
2023-03-15T19:27:42.673Z,4.20
2023-03-15T19:30:17.832Z,3.35
2023-03-15T19:32:48.070Z,3.90
2023-03-15T19:35:16.294Z,3.50
2023-03-15T19:37:44.254Z,3.38
2023-03-15T19:40:13.922Z,3.30
2023-03-15T19:42:41.681Z,3.72
2023-03-15T19:45:10.398Z,3.53
2023-03-15T19:47:39.598Z,4.50
2023-03-15T19:50:08.601Z,4.25
2023-03-15T19:52:38.668Z,5.30
2023-03-15T19:55:08.973Z,5.88
2023-03-15T19:57:36.651Z,6.03
2023-03-15T20:00:05.504Z,5.07
2023-03-15T20:02:33.768Z,4.22
2023-03-15T20:05:03.933Z,3.45
2023-03-15T20:07:31.580Z,4.53
2023-03-15T20:09:59.161Z,3.30
2023-03-15T20:12:26.859Z,4.15
2023-03-15T20:14:54.481Z,4.10
2023-03-15T20:17:22.125Z,4.45
2023-03-15T20:19:49.737Z,6.05
2023-03-15T20:22:18.695Z,5.80
2023-03-15T20:24:46.323Z,6.18
2023-03-15T20:27:14.211Z,6.60
2023-03-15T20:29:41.847Z,6.78
2023-03-15T20:32:09.470Z,9.25
2023-03-15T20:34:37.323Z,8.27
2023-03-15T20:37:04.942Z,6.60
2023-03-15T20:39:34.626Z,6.82
2023-03-15T20:42:02.205Z,8.77
2023-03-15T20:44:29.815Z,7.50
2023-03-15T20:46:59.238Z,5.63
2023-03-15T20:49:29.228Z,6.10
2023-03-15T20:51:58.769Z,5.18
2023-03-15T20:54:26.410Z,4.75
2023-03-15T20:56:55.420Z,6.75
2023-03-15T20:59:23.297Z,5.50
2023-03-15T21:01:51.386Z,5.95
2023-03-15T21:04:21.805Z,5.75
2023-03-15T21:06:49.743Z,5.35
2023-03-15T21:09:17.339Z,6.20
2023-03-15T21:11:44.940Z,5.25
2023-03-15T21:14:13.876Z,6.75
2023-03-15T21:16:41.625Z,6.70
2023-03-15T21:19:09.230Z,5.28
2023-03-15T21:21:36.998Z,5.85
2023-03-15T21:24:06.228Z,5.68
2023-03-15T21:26:33.812Z,5.30
2023-03-15T21:29:01.414Z,5.93
2023-03-15T21:31:30.578Z,6.00
2023-03-15T21:33:58.249Z,6.80
2023-03-15T21:36:25.843Z,6.00
2023-03-15T21:38:53.484Z,6.43
2023-03-15T21:41:21.290Z,5.88
2023-03-15T21:43:48.949Z,5.20
2023-03-15T21:46:16.760Z,5.68
2023-03-15T21:48:45.825Z,6.25
2023-03-15T21:51:14.803Z,7.13
2023-03-15T21:53:42.922Z,6.20
2023-03-15T21:56:10.570Z,6.60
2023-03-15T21:58:38.171Z,7.30
2023-03-15T22:01:08.995Z,5.90
2023-03-15T22:03:37.648Z,5.28
2023-03-15T22:06:07.398Z,7.15
2023-03-15T22:08:35.006Z,5.72
2023-03-15T22:11:04.457Z,5.90
2023-03-15T22:13:32.228Z,6.57
2023-03-15T22:16:01.356Z,6.90
2023-03-15T22:18:29.827Z,6.43
2023-03-15T22:20:57.749Z,8.68
2023-03-15T22:23:26.690Z,6.40
2023-03-15T22:25:55.416Z,5.63
2023-03-15T22:28:24.948Z,7.38
2023-03-15T22:30:53.243Z,6.70
2023-03-15T22:33:22.478Z,5.97
2023-03-15T22:35:56.191Z,6.97
2023-03-15T22:38:24.343Z,5.68
2023-03-15T22:41:01.472Z,6.75
2023-03-15T22:43:29.288Z,5.88
2023-03-15T22:45:56.952Z,4.90
2023-03-15T22:48:24.757Z,6.85
2023-03-15T22:50:58.482Z,5.25
2023-03-15T22:53:26.204Z,5.40
2023-03-15T22:55:55.187Z,4.30
2023-03-15T22:58:23.185Z,5.03
2023-03-15T23:00:51.711Z,5.35
2023-03-15T23:03:19.834Z,5.45
2023-03-15T23:05:47.829Z,4.18
2023-03-15T23:08:15.708Z,5.28
2023-03-15T23:10:43.330Z,4.55
2023-03-15T23:13:12.614Z,4.10
2023-03-15T23:15:40.288Z,4.18
2023-03-15T23:18:08.572Z,4.10
2023-03-15T23:20:37.435Z,4.60
2023-03-15T23:23:05.074Z,4.28
2023-03-15T23:25:35.938Z,4.43
2023-03-15T23:28:03.603Z,4.13
2023-03-15T23:30:35.587Z,4.32
2023-03-15T23:33:03.730Z,4.40
2023-03-15T23:35:32.144Z,4.25
2023-03-15T23:38:02.991Z,3.88
2023-03-15T23:40:30.599Z,4.32
2023-03-15T23:42:59.587Z,4.55
2023-03-15T23:45:29.953Z,4.15
2023-03-15T23:48:17.822Z,3.55
2023-03-15T23:50:45.376Z,4.00
2023-03-15T23:53:12.921Z,4.05
2023-03-15T23:55:41.141Z,3.50
2023-03-15T23:58:08.728Z,3.42
